Latest Weather Observations for Thevenard

IDS60801

Issued at 6:05 am CST Tuesday 2 September 2014 (issued every 30 minutes, with the page automatically refreshed every 10 minutes)

About weather observations | Map of weather stations | Latest weather observations for SA | Other Formats
Station Details ID: 018200 Name: THEVENARD WIND Lat: -32.18 Lon: 133.63 Height: 8.85 m
Data from the previous 72 hours. | See also: Recent months for locations in South Australia
Date/Time
CST
Temp
°C
App
Temp
°C
Dew
Point
Rel
Hum
%
Delta-T
°C
Wind Press
QNH
hPa
Press
MSL
hPa
Rain
since 9 am
mm
Dir
 
Spd
km/h
Gust
km/h
Spd
kts
Gust
kts
02/06:00am - - - - - S 20 24 11 13 - - -
02/05:30am - - - - - S 28 33 15 18 - - -
02/05:00am - - - - - S 28 39 15 21 - - -
02/04:30am - - - - - S 32 41 17 22 - - -
02/04:00am - - - - - SSW 28 33 15 18 - - -
02/03:30am - - - - - SSW 28 35 15 19 - - -
02/03:00am - - - - - S 19 22 10 12 - - -
02/02:30am - - - - - S 24 30 13 16 - - -
02/02:00am - - - - - S 26 32 14 17 - - -
02/01:30am - - - - - S 30 35 16 19 - - -
02/01:00am - - - - - SSW 28 33 15 18 - - -
02/12:30am - - - - - SSW 26 33 14 18 - - -
02/12:00am - - - - - SSW 26 32 14 17 - - -
 
Date/Time
CST
Temp
°C
App
Temp
°C
Dew
Point
Rel
Hum
%
Delta-T
°C
Wind Press
QNH
hPa
Press
MSL
hPa
Rain
since 9 am
mm
Dir
 
Spd
km/h
Gust
km/h
Spd
kts
Gust
kts
01/11:30pm - - - - - SSW 26 32 14 17 - - -
01/11:00pm - - - - - SSW 26 32 14 17 - - -
01/10:30pm - - - - - SSW 26 32 14 17 - - -
01/10:00pm - - - - - SSW 32 37 17 20 - - -
01/09:30pm - - - - - SSW 30 41 16 22 - - -
01/09:00pm - - - - - SSW 28 35 15 19 - - -
01/08:30pm - - - - - SSW 26 32 14 17 - - -
01/08:00pm - - - - - SSW 32 39 17 21 - - -
01/07:30pm - - - - - SSW 35 43 19 23 - - -
01/07:00pm - - - - - SSW 33 43 18 23 - - -
01/06:30pm - - - - - SW 35 43 19 23 - - -
01/06:00pm - - - - - SW 37 52 20 28 - - -
01/05:30pm - - - - - SW 37 44 20 24 - - -
01/05:00pm - - - - - SSW 37 44 20 24 - - -
01/04:30pm - - - - - SSW 37 46 20 25 - - -
01/04:00pm - - - - - SW 33 46 18 25 - - -
01/03:30pm - - - - - WSW 39 50 21 27 - - -
01/03:12pm - - - - - SW 39 65 21 35 - - -
01/03:00pm - - - - - SW 39 46 21 25 - - -
01/02:30pm - - - - - SW 39 48 21 26 - - -
01/02:01pm - - - - - SW 37 56 20 30 - - -
01/02:00pm - - - - - SW 39 56 21 30 - - -
01/01:51pm - - - - - WSW 30 48 16 26 - - -
01/01:30pm - - - - - WSW 32 35 17 19 - - -
01/01:00pm - - - - - WSW 32 39 17 21 - - -
01/12:30pm - - - - - WSW 32 35 17 19 - - -
01/12:00pm - - - - - SW 33 39 18 21 - - -
01/11:30am - - - - - SW 32 39 17 21 - - -
01/11:00am - - - - - SW 30 35 16 19 - - -
01/10:30am - - - - - SW 28 37 15 20 - - -
01/10:00am - - - - - SW 30 33 16 18 - - -
01/09:35am - - - - - SW 28 44 15 24 - - -
01/09:30am - - - - - SW 20 26 11 14 - - -
01/09:00am - - - - - SSW 19 22 10 12 - - -
01/08:30am - - - - - WSW 15 19 8 10 - - -
01/08:00am - - - - - W 24 32 13 17 - - -
01/07:30am - - - - - WNW 19 22 10 12 - - -
01/07:00am - - - - - NW 15 17 8 9 - - -
01/06:30am - - - - - NW 13 15 7 8 - - -
01/06:00am - - - - - NW 9 11 5 6 - - -
01/05:30am - - - - - WSW 4 7 2 4 - - -
01/05:00am - - - - - N 9 11 5 6 - - -
01/04:30am - - - - - E 4 6 2 3 - - -
01/04:00am - - - - - SSW 9 13 5 7 - - -
01/03:30am - - - - - SSW 17 22 9 12 - - -
01/03:00am - - - - - SSW 15 19 8 10 - - -
01/02:30am - - - - - SSW 17 19 9 10 - - -
01/02:00am - - - - - SSW 20 24 11 13 - - -
01/01:30am - - - - - S 11 15 6 8 - - -
01/01:00am - - - - - S 17 19 9 10 - - -
01/12:30am - - - - - S 15 20 8 11 - - -
01/12:00am - - - - - S 20 24 11 13 - - -
 
Date/Time
CST
Temp
°C
App
Temp
°C
Dew
Point
Rel
Hum
%
Delta-T
°C
Wind Press
QNH
hPa
Press
MSL
hPa
Rain
since 9 am
mm
Dir
 
Spd
km/h
Gust
km/h
Spd
kts
Gust
kts
31/11:30pm - - - - - S 22 26 12 14 - - -
31/11:00pm - - - - - SSW 22 26 12 14 - - -
31/10:30pm - - - - - SSW 9 13 5 7 - - -
31/10:00pm - - - - - S 4 6 2 3 - - -
31/09:30pm - - - - - ESE 2 4 1 2 - - -
31/09:00pm - - - - - NE 6 11 3 6 - - -
31/08:30pm - - - - - SSW 20 22 11 12 - - -
31/08:00pm - - - - - S 22 26 12 14 - - -
31/07:30pm - - - - - SSE 13 15 7 8 - - -
31/07:00pm - - - - - SSE 17 20 9 11 - - -
31/06:30pm - - - - - S 24 28 13 15 - - -
31/06:00pm - - - - - SSW 26 32 14 17 - - -
31/05:30pm - - - - - SSW 24 30 13 16 - - -
31/05:00pm - - - - - SSW 26 35 14 19 - - -
31/04:30pm - - - - - SSW 24 32 13 17 - - -
31/04:00pm - - - - - SW 24 28 13 15 - - -
31/03:30pm - - - - - SW 20 24 11 13 - - -
31/03:00pm - - - - - SW 15 19 8 10 - - -
31/02:30pm - - - - - WSW 11 15 6 8 - - -
31/02:00pm - - - - - SW 11 13 6 7 - - -
31/01:30pm - - - - - WSW 11 11 6 6 - - -
31/01:00pm - - - - - WSW 6 7 3 4 - - -
31/12:30pm - - - - - SW 9 11 5 6 - - -
31/12:00pm - - - - - WSW 11 15 6 8 - - -
31/11:30am - - - - - N 11 15 6 8 - - -
31/11:00am - - - - - N 11 13 6 7 - - -
31/10:30am - - - - - NNE 15 17 8 9 - - -
31/10:00am - - - - - NNE 15 17 8 9 - - -
31/09:30am - - - - - NW 11 13 6 7 - - -
31/09:00am - - - - - NNE 22 26 12 14 - - -
31/08:30am - - - - - NNE 19 22 10 12 - - -
31/08:00am - - - - - NE 13 15 7 8 - - -
31/07:30am - - - - - ENE 9 13 5 7 - - -
31/07:00am - - - - - ENE 9 9 5 5 - - -
31/06:30am - - - - - NE 9 11 5 6 - - -
31/06:00am - - - - - NE 19 20 10 11 - - -
31/05:30am - - - - - NNE 19 22 10 12 - - -
31/05:00am - - - - - NNE 15 17 8 9 - - -
31/04:30am - - - - - N 11 13 6 7 - - -
31/04:00am - - - - - NW 11 11 6 6 - - -
31/03:30am - - - - - W 17 20 9 11 - - -
31/03:00am - - - - - W 20 26 11 14 - - -
31/02:30am - - - - - NNE 17 20 9 11 - - -
31/02:00am - - - - - NNE 24 30 13 16 - - -
31/01:30am - - - - - NNE 28 35 15 19 - - -
31/01:00am - - - - - NNE 28 33 15 18 - - -
31/12:30am - - - - - NNE 30 37 16 20 - - -
31/12:00am - - - - - NNE 35 44 19 24 - - -
 
Date/Time
CST
Temp
°C
App
Temp
°C
Dew
Point
Rel
Hum
%
Delta-T
°C
Wind Press
QNH
hPa
Press
MSL
hPa
Rain
since 9 am
mm
Dir
 
Spd
km/h
Gust
km/h
Spd
kts
Gust
kts
30/11:30pm - - - - - NNE 33 41 18 22 - - -
30/11:00pm - - - - - NNE 35 43 19 23 - - -
30/10:30pm - - - - - NNE 35 44 19 24 - - -
30/10:00pm - - - - - NE 28 33 15 18 - - -
30/09:30pm - - - - - NE 20 22 11 12 - - -
30/09:00pm - - - - - NE 19 22 10 12 - - -
30/08:30pm - - - - - NE 20 22 11 12 - - -
30/08:00pm - - - - - NE 20 22 11 12 - - -
30/07:30pm - - - - - NE 19 22 10 12 - - -
30/07:00pm - - - - - NE 22 24 12 13 - - -
30/06:30pm - - - - - NNE 20 22 11 12 - - -
30/06:00pm - - - - - NNE 19 22 10 12 - - -
30/05:30pm - - - - - N 20 24 11 13 - - -
30/05:00pm - - - - - N 17 20 9 11 - - -
30/04:30pm - - - - - N 24 28 13 15 - - -
30/04:00pm - - - - - N 20 24 11 13 - - -
30/03:30pm - - - - - N 26 32 14 17 - - -
30/03:00pm - - - - - NNE 24 28 13 15 - - -
30/02:30pm - - - - - N 22 24 12 13 - - -
30/02:00pm - - - - - N 24 32 13 17 - - -
30/01:30pm - - - - - N 26 35 14 19 - - -
30/01:00pm - - - - - N 30 37 16 20 - - -
30/12:30pm - - - - - N 28 32 15 17 - - -
30/12:00pm - - - - - N 28 35 15 19 - - -
30/11:30am - - - - - NNE 32 39 17 21 - - -
30/11:00am - - - - - NNE 32 39 17 21 - - -
30/10:30am - - - - - N 35 44 19 24 - - -
30/10:00am - - - - - N 37 43 20 23 - - -
30/09:30am - - - - - NNE 28 35 15 19 - - -
30/09:00am - - - - - NNE 32 37 17 20 - - -
30/08:30am - - - - - NNE 28 33 15 18 - - -
30/08:00am - - - - - NNE 32 39 17 21 - - -
30/07:30am - - - - - NNE 32 39 17 21 - - -
30/07:00am - - - - - NNE 30 37 16 20 - - -
30/06:30am - - - - - NNE 30 35 16 19 - - -

Other Formats:

Comma delimited format used in spreadsheet applications
http://www.bom.gov.au/fwo/IDS60801/IDS60801.95653.axf

JavaScript Object Notation format (JSON) in row-major order
http://www.bom.gov.au/fwo/IDS60801/IDS60801.95653.json